sensor_id;sensor_type;location;lat;lon;timestamp;pressure;altitude;pressure_sealevel;temperature;humidity
12775;BME280;6451;42.630;23.382;2023-05-23T00:00:20;94262.69;;;17.51;100.00
12775;BME280;6451;42.630;23.382;2023-05-23T00:02:47;94260.69;;;17.62;100.00
12775;BME280;6451;42.630;23.382;2023-05-23T00:05:14;94246.63;;;17.35;100.00
12775;BME280;6451;42.630;23.382;2023-05-23T00:07:43;94259.53;;;17.60;100.00
12775;BME280;6451;42.630;23.382;2023-05-23T00:10:11;94261.13;;;17.64;100.00
12775;BME280;6451;42.630;23.382;2023-05-23T00:12:37;94248.56;;;17.35;100.00
12775;BME280;6451;42.630;23.382;2023-05-23T00:15:07;94236.41;;;17.11;100.00
12775;BME280;6451;42.630;23.382;2023-05-23T00:17:35;94241.88;;;17.07;100.00
12775;BME280;6451;42.630;23.382;2023-05-23T00:20:02;94255.22;;;17.19;100.00
12775;BME280;6451;42.630;23.382;2023-05-23T00:22:29;94245.41;;;17.11;100.00
12775;BME280;6451;42.630;23.382;2023-05-23T00:24:59;94256.78;;;17.24;100.00
12775;BME280;6451;42.630;23.382;2023-05-23T00:27:26;94226.59;;;17.10;100.00
12775;BME280;6451;42.630;23.382;2023-05-23T00:29:53;94239.16;;;17.29;100.00
12775;BME280;6451;42.630;23.382;2023-05-23T00:32:20;94247.38;;;17.21;100.00
12775;BME280;6451;42.630;23.382;2023-05-23T00:34:47;94217.19;;;16.97;100.00
12775;BME280;6451;42.630;23.382;2023-05-23T00:37:15;94233.28;;;17.27;100.00
12775;BME280;6451;42.630;23.382;2023-05-23T00:39:43;94245.03;;;17.23;100.00
12775;BME280;6451;42.630;23.382;2023-05-23T00:42:11;94230.50;;;17.02;100.00
12775;BME280;6451;42.630;23.382;2023-05-23T00:44:38;94232.47;;;17.01;100.00
12775;BME280;6451;42.630;23.382;2023-05-23T00:47:06;94241.47;;;16.98;100.00
12775;BME280;6451;42.630;23.382;2023-05-23T00:49:34;94230.81;;;16.68;100.00
12775;BME280;6451;42.630;23.382;2023-05-23T00:52:01;94239.75;;;16.51;100.00
12775;BME280;6451;42.630;23.382;2023-05-23T00:54:30;94242.16;;;16.66;100.00
12775;BME280;6451;42.630;23.382;2023-05-23T00:56:58;94200.19;;;16.37;100.00
12775;BME280;6451;42.630;23.382;2023-05-23T00:59:26;94233.91;;;16.52;100.00
12775;BME280;6451;42.630;23.382;2023-05-23T01:01:56;94203.78;;;16.59;100.00
12775;BME280;6451;42.630;23.382;2023-05-23T01:04:25;94244.09;;;16.59;100.00
12775;BME280;6451;42.630;23.382;2023-05-23T01:06:53;94241.75;;;16.61;100.00
12775;BME280;6451;42.630;23.382;2023-05-23T01:09:20;94225.31;;;16.57;100.00
12775;BME280;6451;42.630;23.382;2023-05-23T01:11:55;94239.41;;;16.63;100.00
12775;BME280;6451;42.630;23.382;2023-05-23T01:14:32;94176.31;;;16.27;100.00
12775;BME280;6451;42.630;23.382;2023-05-23T01:17:06;94243.78;;;16.78;100.00
12775;BME280;6451;42.630;23.382;2023-05-23T01:19:51;94243.66;;;16.43;100.00
12775;BME280;6451;42.630;23.382;2023-05-23T01:22:27;94231.09;;;16.38;100.00
12775;BME280;6451;42.630;23.382;2023-05-23T01:25:06;94198.81;;;15.89;100.00
12775;BME280;6451;42.630;23.382;2023-05-23T01:27:52;94234.63;;;16.38;100.00
12775;BME280;6451;42.630;23.382;2023-05-23T01:30:24;94241.44;;;16.77;100.00
12775;BME280;6451;42.630;23.382;2023-05-23T01:32:54;94231.28;;;16.91;100.00
12775;BME280;6451;42.630;23.382;2023-05-23T01:35:24;94244.22;;;17.09;100.00
12775;BME280;6451;42.630;23.382;2023-05-23T01:37:51;94246.56;;;16.96;100.00
12775;BME280;6451;42.630;23.382;2023-05-23T01:40:20;94247.72;;;16.88;100.00
12775;BME280;6451;42.630;23.382;2023-05-23T01:42:47;94234.00;;;16.81;100.00
12775;BME280;6451;42.630;23.382;2023-05-23T01:45:16;94240.22;;;16.71;100.00
12775;BME280;6451;42.630;23.382;2023-05-23T01:47:44;94222.53;;;16.54;100.00
12775;BME280;6451;42.630;23.382;2023-05-23T01:50:13;94225.28;;;16.54;100.00
12775;BME280;6451;42.630;23.382;2023-05-23T01:52:41;94232.44;;;16.80;100.00
12775;BME280;6451;42.630;23.382;2023-05-23T01:55:09;94230.47;;;16.77;100.00
12775;BME280;6451;42.630;23.382;2023-05-23T01:57:37;94227.28;;;16.57;100.00
12775;BME280;6451;42.630;23.382;2023-05-23T02:00:05;94228.78;;;16.44;100.00
12775;BME280;6451;42.630;23.382;2023-05-23T02:02:35;94233.91;;;16.52;100.00
12775;BME280;6451;42.630;23.382;2023-05-23T02:05:03;94233.22;;;16.73;100.00
12775;BME280;6451;42.630;23.382;2023-05-23T02:07:30;94225.16;;;16.25;100.00
12775;BME280;6451;42.630;23.382;2023-05-23T02:09:57;94228.25;;;16.13;100.00
12775;BME280;6451;42.630;23.382;2023-05-23T02:12:24;94228.69;;;16.22;100.00
12775;BME280;6451;42.630;23.382;2023-05-23T02:14:53;94220.88;;;16.24;100.00
12775;BME280;6451;42.630;23.382;2023-05-23T02:17:20;94223.69;;;16.42;100.00
12775;BME280;6451;42.630;23.382;2023-05-23T02:19:50;94220.91;;;16.28;100.00
12775;BME280;6451;42.630;23.382;2023-05-23T02:22:22;94231.03;;;16.24;100.00
12775;BME280;6451;42.630;23.382;2023-05-23T02:24:49;94232.19;;;16.12;100.00
12775;BME280;6451;42.630;23.382;2023-05-23T02:27:16;94228.94;;;15.89;100.00
12775;BME280;6451;42.630;23.382;2023-05-23T02:29:43;94170.56;;;15.70;100.00
12775;BME280;6451;42.630;23.382;2023-05-23T02:32:10;94236.00;;;15.97;100.00
12775;BME280;6451;42.630;23.382;2023-05-23T02:34:38;94223.81;;;15.83;100.00
12775;BME280;6451;42.630;23.382;2023-05-23T02:37:06;94225.34;;;15.81;100.00
12775;BME280;6451;42.630;23.382;2023-05-23T02:39:34;94229.31;;;15.91;100.00
12775;BME280;6451;42.630;23.382;2023-05-23T02:42:01;94225.06;;;16.00;100.00
12775;BME280;6451;42.630;23.382;2023-05-23T02:44:29;94205.47;;;15.91;100.00
12775;BME280;6451;42.630;23.382;2023-05-23T02:46:56;94229.63;;;15.75;100.00
12775;BME280;6451;42.630;23.382;2023-05-23T02:49:23;94210.47;;;15.78;100.00
12775;BME280;6451;42.630;23.382;2023-05-23T02:51:51;94217.88;;;15.74;100.00
12775;BME280;6451;42.630;23.382;2023-05-23T02:54:19;94209.47;;;15.46;100.00
12775;BME280;6451;42.630;23.382;2023-05-23T02:56:46;94157.19;;;14.99;100.00
12775;BME280;6451;42.630;23.382;2023-05-23T02:59:14;94215.19;;;15.26;100.00
12775;BME280;6451;42.630;23.382;2023-05-23T03:01:42;94222.03;;;15.54;100.00
12775;BME280;6451;42.630;23.382;2023-05-23T03:04:11;94195.31;;;14.85;100.00
12775;BME280;6451;42.630;23.382;2023-05-23T03:06:38;94219.75;;;15.12;100.00
12775;BME280;6451;42.630;23.382;2023-05-23T03:09:08;94221.03;;;14.81;100.00
12775;BME280;6451;42.630;23.382;2023-05-23T03:11:37;94202.00;;;14.91;100.00
12775;BME280;6451;42.630;23.382;2023-05-23T03:14:04;94219.25;;;14.99;100.00
12775;BME280;6451;42.630;23.382;2023-05-23T03:16:32;94227.13;;;15.08;100.00
12775;BME280;6451;42.630;23.382;2023-05-23T03:19:00;94206.88;;;15.12;100.00
12775;BME280;6451;42.630;23.382;2023-05-23T03:21:27;94228.81;;;15.19;100.00
12775;BME280;6451;42.630;23.382;2023-05-23T03:23:55;94211.81;;;14.96;100.00
12775;BME280;6451;42.630;23.382;2023-05-23T03:26:22;94221.50;;;15.38;100.00
12775;BME280;6451;42.630;23.382;2023-05-23T03:28:51;94221.13;;;15.36;100.00
12775;BME280;6451;42.630;23.382;2023-05-23T03:31:17;94232.56;;;15.52;100.00
12775;BME280;6451;42.630;23.382;2023-05-23T03:33:45;94180.72;;;15.11;100.00
12775;BME280;6451;42.630;23.382;2023-05-23T03:36:11;94236.78;;;15.42;100.00
12775;BME280;6451;42.630;23.382;2023-05-23T03:38:38;94231.19;;;15.76;100.00
12775;BME280;6451;42.630;23.382;2023-05-23T03:41:06;94234.25;;;15.71;100.00
12775;BME280;6451;42.630;23.382;2023-05-23T03:43:33;94258.06;;;15.63;100.00
12775;BME280;6451;42.630;23.382;2023-05-23T03:46:01;94225.69;;;15.21;100.00
12775;BME280;6451;42.630;23.382;2023-05-23T03:48:28;94250.31;;;15.72;100.00
12775;BME280;6451;42.630;23.382;2023-05-23T03:50:55;94241.41;;;15.86;100.00
12775;BME280;6451;42.630;23.382;2023-05-23T03:53:23;94251.13;;;15.76;100.00
12775;BME280;6451;42.630;23.382;2023-05-23T03:55:50;94247.84;;;15.60;100.00
12775;BME280;6451;42.630;23.382;2023-05-23T03:58:18;94237.44;;;15.73;100.00
12775;BME280;6451;42.630;23.382;2023-05-23T04:00:45;94233.31;;;16.04;100.00
12775;BME280;6451;42.630;23.382;2023-05-23T04:03:14;94247.28;;;15.88;100.00
12775;BME280;6451;42.630;23.382;2023-05-23T04:05:41;94236.97;;;16.40;100.00
12775;BME280;6451;42.630;23.382;2023-05-23T04:08:08;94221.63;;;16.14;100.00
12775;BME280;6451;42.630;23.382;2023-05-23T04:10:35;94250.31;;;16.52;100.00
12775;BME280;6451;42.630;23.382;2023-05-23T04:13:03;94254.59;;;16.43;100.00
12775;BME280;6451;42.630;23.382;2023-05-23T04:15:31;94250.69;;;16.44;100.00
12775;BME280;6451;42.630;23.382;2023-05-23T04:17:58;94223.19;;;16.15;100.00
12775;BME280;6451;42.630;23.382;2023-05-23T04:20:27;94250.63;;;16.33;100.00
12775;BME280;6451;42.630;23.382;2023-05-23T04:22:56;94259.19;;;16.21;100.00
12775;BME280;6451;42.630;23.382;2023-05-23T04:25:23;94256.63;;;15.83;100.00
12775;BME280;6451;42.630;23.382;2023-05-23T04:27:50;94257.69;;;16.34;100.00
12775;BME280;6451;42.630;23.382;2023-05-23T04:30:18;94250.34;;;16.63;100.00
12775;BME280;6451;42.630;23.382;2023-05-23T04:32:45;94257.88;;;16.80;100.00
12775;BME280;6451;42.630;23.382;2023-05-23T04:35:12;94250.47;;;16.91;100.00
12775;BME280;6451;42.630;23.382;2023-05-23T04:37:41;94251.97;;;16.71;100.00
12775;BME280;6451;42.630;23.382;2023-05-23T04:40:10;94193.13;;;16.33;100.00
12775;BME280;6451;42.630;23.382;2023-05-23T04:42:38;94234.28;;;16.54;100.00
12775;BME280;6451;42.630;23.382;2023-05-23T04:45:08;94243.22;;;16.40;100.00
12775;BME280;6451;42.630;23.382;2023-05-23T04:47:35;94252.63;;;16.39;100.00
12775;BME280;6451;42.630;23.382;2023-05-23T04:50:03;94245.22;;;16.47;100.00
12775;BME280;6451;42.630;23.382;2023-05-23T04:52:30;94266.91;;;16.91;100.00
12775;BME280;6451;42.630;23.382;2023-05-23T04:55:00;94261.09;;;17.32;100.00
12775;BME280;6451;42.630;23.382;2023-05-23T04:57:27;94268.56;;;17.53;100.00
12775;BME280;6451;42.630;23.382;2023-05-23T04:59:54;94254.84;;;17.42;100.00
12775;BME280;6451;42.630;23.382;2023-05-23T05:02:21;94271.25;;;17.17;100.00
12775;BME280;6451;42.630;23.382;2023-05-23T05:04:48;94279.44;;;16.92;100.00
12775;BME280;6451;42.630;23.382;2023-05-23T05:07:15;94278.31;;;17.04;100.00
12775;BME280;6451;42.630;23.382;2023-05-23T05:09:42;94201.91;;;16.85;100.00
12775;BME280;6451;42.630;23.382;2023-05-23T05:12:12;94281.06;;;17.22;100.00
12775;BME280;6451;42.630;23.382;2023-05-23T05:14:39;94268.81;;;16.70;100.00
12775;BME280;6451;42.630;23.382;2023-05-23T05:17:05;94258.72;;;17.13;100.00
12775;BME280;6451;42.630;23.382;2023-05-23T05:19:32;94270.13;;;17.29;100.00
12775;BME280;6451;42.630;23.382;2023-05-23T05:21:59;94285.03;;;17.57;100.00
12775;BME280;6451;42.630;23.382;2023-05-23T05:24:26;94266.53;;;17.00;100.00
12775;BME280;6451;42.630;23.382;2023-05-23T05:26:53;94286.59;;;17.75;100.00
12775;BME280;6451;42.630;23.382;2023-05-23T05:29:22;94278.69;;;17.17;100.00
12775;BME280;6451;42.630;23.382;2023-05-23T05:31:49;94272.88;;;17.61;100.00
12775;BME280;6451;42.630;23.382;2023-05-23T05:34:16;94289.34;;;18.04;100.00
12775;BME280;6451;42.630;23.382;2023-05-23T05:36:43;94288.19;;;17.76;100.00
12775;BME280;6451;42.630;23.382;2023-05-23T05:39:13;94288.16;;;17.62;100.00
12775;BME280;6451;42.630;23.382;2023-05-23T05:41:40;94289.34;;;17.90;100.00
12775;BME280;6451;42.630;23.382;2023-05-23T05:44:08;94288.16;;;17.98;100.00
12775;BME280;6451;42.630;23.382;2023-05-23T05:46:37;94283.41;;;18.20;100.00
12775;BME280;6451;42.630;23.382;2023-05-23T05:49:04;94290.09;;;18.08;100.00
12775;BME280;6451;42.630;23.382;2023-05-23T05:51:31;94286.97;;;17.92;100.00
12775;BME280;6451;42.630;23.382;2023-05-23T05:53:57;94290.41;;;18.46;100.00
12775;BME280;6451;42.630;23.382;2023-05-23T05:56:25;94280.50;;;18.80;100.00
12775;BME280;6451;42.630;23.382;2023-05-23T05:58:53;94256.94;;;19.42;100.00
12775;BME280;6451;42.630;23.382;2023-05-23T06:01:20;94281.06;;;19.20;100.00
12775;BME280;6451;42.630;23.382;2023-05-23T06:03:50;94262.56;;;19.80;100.00
12775;BME280;6451;42.630;23.382;2023-05-23T06:06:17;94273.44;;;19.94;100.00
12775;BME280;6451;42.630;23.382;2023-05-23T06:08:44;94281.22;;;20.03;100.00
12775;BME280;6451;42.630;23.382;2023-05-23T06:11:11;94273.16;;;19.22;100.00
12775;BME280;6451;42.630;23.382;2023-05-23T06:13:39;94277.88;;;19.25;100.00
12775;BME280;6451;42.630;23.382;2023-05-23T06:16:06;94280.50;;;19.43;100.00
12775;BME280;6451;42.630;23.382;2023-05-23T06:18:34;94274.25;;;19.39;100.00
12775;BME280;6451;42.630;23.382;2023-05-23T06:21:03;94277.66;;;20.06;100.00
12775;BME280;6451;42.630;23.382;2023-05-23T06:23:30;94286.50;;;20.24;100.00
12775;BME280;6451;42.630;23.382;2023-05-23T06:25:57;94273.13;;;20.26;100.00
12775;BME280;6451;42.630;23.382;2023-05-23T06:28:25;94248.00;;;20.20;100.00
12775;BME280;6451;42.630;23.382;2023-05-23T06:30:51;94279.63;;;20.43;100.00
12775;BME280;6451;42.630;23.382;2023-05-23T06:33:19;94283.25;;;20.74;100.00
12775;BME280;6451;42.630;23.382;2023-05-23T06:35:47;94288.94;;;20.94;100.00
12775;BME280;6451;42.630;23.382;2023-05-23T06:38:16;94282.28;;;20.57;100.00
12775;BME280;6451;42.630;23.382;2023-05-23T06:40:44;94263.06;;;20.46;100.00
12775;BME280;6451;42.630;23.382;2023-05-23T06:43:14;94282.81;;;21.09;100.00
12775;BME280;6451;42.630;23.382;2023-05-23T06:45:43;94285.94;;;21.38;100.00
12775;BME280;6451;42.630;23.382;2023-05-23T06:48:10;94287.53;;;21.40;100.00
12775;BME280;6451;42.630;23.382;2023-05-23T06:50:37;94290.59;;;20.84;100.00
12775;BME280;6451;42.630;23.382;2023-05-23T06:53:05;94277.22;;;20.82;100.00
12775;BME280;6451;42.630;23.382;2023-05-23T06:55:34;94278.75;;;21.18;100.00
12775;BME280;6451;42.630;23.382;2023-05-23T06:58:01;94262.41;;;21.57;100.00
12775;BME280;6451;42.630;23.382;2023-05-23T07:00:30;94276.44;;;21.70;100.00
12775;BME280;6451;42.630;23.382;2023-05-23T07:02:58;94275.22;;;21.44;100.00
12775;BME280;6451;42.630;23.382;2023-05-23T07:05:26;94273.34;;;21.37;100.00
12775;BME280;6451;42.630;23.382;2023-05-23T07:07:53;94262.53;;;21.74;100.00
12775;BME280;6451;42.630;23.382;2023-05-23T07:10:21;94271.00;;;21.63;100.00
12775;BME280;6451;42.630;23.382;2023-05-23T07:12:49;94270.47;;;21.72;100.00
12775;BME280;6451;42.630;23.382;2023-05-23T07:15:16;94218.88;;;20.84;100.00
12775;BME280;6451;42.630;23.382;2023-05-23T07:17:43;94265.38;;;21.43;100.00
12775;BME280;6451;42.630;23.382;2023-05-23T07:20:10;94261.31;;;21.51;100.00
12775;BME280;6451;42.630;23.382;2023-05-23T07:22:38;94258.69;;;21.14;100.00
12775;BME280;6451;42.630;23.382;2023-05-23T07:25:06;94241.09;;;21.81;100.00
12775;BME280;6451;42.630;23.382;2023-05-23T07:27:34;94263.31;;;21.98;100.00
12775;BME280;6451;42.630;23.382;2023-05-23T07:30:02;94257.31;;;20.98;100.00
12775;BME280;6451;42.630;23.382;2023-05-23T07:32:30;94249.31;;;21.61;100.00
12775;BME280;6451;42.630;23.382;2023-05-23T07:34:56;94243.44;;;21.83;100.00
12775;BME280;6451;42.630;23.382;2023-05-23T07:37:23;94222.31;;;21.73;100.00
12775;BME280;6451;42.630;23.382;2023-05-23T07:39:51;94256.25;;;21.97;100.00
12775;BME280;6451;42.630;23.382;2023-05-23T07:42:18;94248.25;;;21.55;100.00
12775;BME280;6451;42.630;23.382;2023-05-23T07:44:45;94237.69;;;21.74;100.00
12775;BME280;6451;42.630;23.382;2023-05-23T07:47:14;94241.75;;;21.42;100.00
12775;BME280;6451;42.630;23.382;2023-05-23T07:49:41;94245.53;;;21.99;100.00
12775;BME280;6451;42.630;23.382;2023-05-23T07:52:08;94245.00;;;22.07;100.00
12775;BME280;6451;42.630;23.382;2023-05-23T07:54:35;94237.34;;;21.72;100.00
12775;BME280;6451;42.630;23.382;2023-05-23T07:57:03;94245.09;;;22.47;100.00
12775;BME280;6451;42.630;23.382;2023-05-23T07:59:31;94236.22;;;22.36;100.00
12775;BME280;6451;42.630;23.382;2023-05-23T08:02:00;94245.66;;;22.58;100.00
12775;BME280;6451;42.630;23.382;2023-05-23T08:04:29;94236.19;;;22.16;100.00
12775;BME280;6451;42.630;23.382;2023-05-23T08:06:56;94243.03;;;22.51;100.00
12775;BME280;6451;42.630;23.382;2023-05-23T08:09:25;94167.06;;;21.73;100.00
12775;BME280;6451;42.630;23.382;2023-05-23T08:11:51;94238.06;;;22.42;100.00
12775;BME280;6451;42.630;23.382;2023-05-23T08:14:19;94223.06;;;22.20;100.00
12775;BME280;6451;42.630;23.382;2023-05-23T08:16:47;94237.06;;;22.72;100.00
12775;BME280;6451;42.630;23.382;2023-05-23T08:19:15;94240.25;;;22.71;100.00
12775;BME280;6451;42.630;23.382;2023-05-23T08:21:43;94241.69;;;22.79;100.00
12775;BME280;6451;42.630;23.382;2023-05-23T08:24:10;94232.91;;;23.37;100.00
12775;BME280;6451;42.630;23.382;2023-05-23T08:29:20;94172.78;;;23.21;100.00
12775;BME280;6451;42.630;23.382;2023-05-23T08:31:47;94218.44;;;23.65;100.00
12775;BME280;6451;42.630;23.382;2023-05-23T08:34:14;94230.31;;;23.29;100.00
12775;BME280;6451;42.630;23.382;2023-05-23T08:36:41;94217.44;;;22.87;100.00
12775;BME280;6451;42.630;23.382;2023-05-23T08:39:09;94230.41;;;23.26;100.00
12775;BME280;6451;42.630;23.382;2023-05-23T08:41:36;94224.00;;;23.29;100.00
12775;BME280;6451;42.630;23.382;2023-05-23T08:44:04;94226.38;;;23.47;100.00
12775;BME280;6451;42.630;23.382;2023-05-23T08:46:32;94226.69;;;24.14;100.00
12775;BME280;6451;42.630;23.382;2023-05-23T08:48:59;94227.84;;;24.00;100.00
12775;BME280;6451;42.630;23.382;2023-05-23T08:51:27;94226.22;;;23.87;100.00
12775;BME280;6451;42.630;23.382;2023-05-23T08:53:54;94223.88;;;24.47;100.00
12775;BME280;6451;42.630;23.382;2023-05-23T08:56:24;94226.22;;;23.70;100.00
12775;BME280;6451;42.630;23.382;2023-05-23T08:58:53;94227.50;;;23.82;100.00
12775;BME280;6451;42.630;23.382;2023-05-23T09:01:21;94216.34;;;23.85;100.00
12775;BME280;6451;42.630;23.382;2023-05-23T09:03:50;94208.53;;;23.97;100.00
12775;BME280;6451;42.630;23.382;2023-05-23T09:06:19;94222.06;;;23.95;100.00
12775;BME280;6451;42.630;23.382;2023-05-23T09:08:47;94197.81;;;24.28;98.20
12775;BME280;6451;42.630;23.382;2023-05-23T09:11:14;94209.25;;;24.59;100.00
12775;BME280;6451;42.630;23.382;2023-05-23T09:13:42;94213.09;;;24.78;95.58
12775;BME280;6451;42.630;23.382;2023-05-23T09:16:09;94216.72;;;24.33;94.05
12775;BME280;6451;42.630;23.382;2023-05-23T09:18:38;94213.72;;;25.11;89.99
12775;BME280;6451;42.630;23.382;2023-05-23T09:21:07;94208.63;;;25.35;79.80
12775;BME280;6451;42.630;23.382;2023-05-23T09:23:35;94209.16;;;25.30;76.66
12775;BME280;6451;42.630;23.382;2023-05-23T09:26:04;94212.84;;;25.27;79.16
12775;BME280;6451;42.630;23.382;2023-05-23T09:28:32;94186.94;;;25.30;74.29
12775;BME280;6451;42.630;23.382;2023-05-23T09:31:01;94217.94;;;25.15;72.72
12775;BME280;6451;42.630;23.382;2023-05-23T09:33:33;94214.16;;;25.35;71.44
12775;BME280;6451;42.630;23.382;2023-05-23T09:36:02;94213.06;;;25.19;71.23
12775;BME280;6451;42.630;23.382;2023-05-23T09:38:30;94209.59;;;25.66;70.75
12775;BME280;6451;42.630;23.382;2023-05-23T09:40:58;94207.28;;;25.39;69.80
12775;BME280;6451;42.630;23.382;2023-05-23T09:43:25;94206.72;;;25.44;68.53
12775;BME280;6451;42.630;23.382;2023-05-23T09:46:03;94203.50;;;25.46;63.23
12775;BME280;6451;42.630;23.382;2023-05-23T09:48:32;94203.91;;;25.95;60.11
12775;BME280;6451;42.630;23.382;2023-05-23T09:51:03;94182.50;;;25.32;56.87
12775;BME280;6451;42.630;23.382;2023-05-23T09:53:32;94205.63;;;25.55;60.31
12775;BME280;6451;42.630;23.382;2023-05-23T09:56:01;94189.13;;;24.96;56.40
12775;BME280;6451;42.630;23.382;2023-05-23T09:58:29;94193.06;;;25.12;57.88
12775;BME280;6451;42.630;23.382;2023-05-23T10:01:01;94158.72;;;24.93;57.33
12775;BME280;6451;42.630;23.382;2023-05-23T10:03:33;94196.81;;;25.05;59.81
12775;BME280;6451;42.630;23.382;2023-05-23T10:06:07;94192.50;;;25.30;60.59
12775;BME280;6451;42.630;23.382;2023-05-23T10:08:37;94180.69;;;25.64;60.50
12775;BME280;6451;42.630;23.382;2023-05-23T10:14:15;94178.13;;;25.69;58.86
12775;BME280;6451;42.630;23.382;2023-05-23T10:16:54;94174.81;;;25.62;58.35
12775;BME280;6451;42.630;23.382;2023-05-23T10:19:27;94183.03;;;25.52;58.15
12775;BME280;6451;42.630;23.382;2023-05-23T10:22:00;94158.94;;;25.37;60.95
12775;BME280;6451;42.630;23.382;2023-05-23T10:24:28;94165.47;;;25.81;60.64
12775;BME280;6451;42.630;23.382;2023-05-23T10:26:56;94171.72;;;25.72;57.39
12775;BME280;6451;42.630;23.382;2023-05-23T10:29:24;94186.59;;;26.13;57.53
12775;BME280;6451;42.630;23.382;2023-05-23T10:31:53;94179.81;;;26.49;56.55
12775;BME280;6451;42.630;23.382;2023-05-23T10:34:26;94178.22;;;26.26;55.80
12775;BME280;6451;42.630;23.382;2023-05-23T10:36:59;94176.56;;;25.81;54.42
12775;BME280;6451;42.630;23.382;2023-05-23T10:39:45;94108.53;;;25.26;54.71
12775;BME280;6451;42.630;23.382;2023-05-23T10:42:18;94174.75;;;26.00;50.41
12775;BME280;6451;42.630;23.382;2023-05-23T10:44:47;94166.03;;;25.63;49.85
12775;BME280;6451;42.630;23.382;2023-05-23T10:47:25;94145.81;;;25.63;48.66
12775;BME280;6451;42.630;23.382;2023-05-23T10:49:54;94154.84;;;26.01;46.86
12775;BME280;6451;42.630;23.382;2023-05-23T10:52:23;94124.38;;;26.20;46.41
12775;BME280;6451;42.630;23.382;2023-05-23T10:54:53;94163.81;;;26.05;48.35
12775;BME280;6451;42.630;23.382;2023-05-23T10:57:21;94162.69;;;25.81;49.26
12775;BME280;6451;42.630;23.382;2023-05-23T10:59:51;94161.63;;;26.00;46.05
12775;BME280;6451;42.630;23.382;2023-05-23T11:02:25;94128.66;;;26.12;45.01
12775;BME280;6451;42.630;23.382;2023-05-23T11:05:17;94159.81;;;26.41;46.12
12775;BME280;6451;42.630;23.382;2023-05-23T11:07:44;94161.25;;;26.11;45.81
12775;BME280;6451;42.630;23.382;2023-05-23T11:10:12;94148.34;;;25.70;47.04
12775;BME280;6451;42.630;23.382;2023-05-23T11:12:41;94143.13;;;26.06;46.91
12775;BME280;6451;42.630;23.382;2023-05-23T11:15:21;94132.22;;;26.34;46.45
12775;BME280;6451;42.630;23.382;2023-05-23T11:17:51;94143.13;;;26.41;44.78
12775;BME280;6451;42.630;23.382;2023-05-23T11:20:21;94140.06;;;26.70;46.29
12775;BME280;6451;42.630;23.382;2023-05-23T11:22:53;94145.84;;;26.19;44.54
12775;BME280;6451;42.630;23.382;2023-05-23T11:25:21;94143.75;;;26.45;43.43
12775;BME280;6451;42.630;23.382;2023-05-23T11:28:05;94135.66;;;27.13;45.79
12775;BME280;6451;42.630;23.382;2023-05-23T11:30:32;94124.78;;;26.31;45.83
12775;BME280;6451;42.630;23.382;2023-05-23T11:33:05;94104.91;;;25.50;45.07
12775;BME280;6451;42.630;23.382;2023-05-23T11:35:34;94126.19;;;26.36;44.92
12775;BME280;6451;42.630;23.382;2023-05-23T11:38:02;94076.53;;;26.03;45.19
12775;BME280;6451;42.630;23.382;2023-05-23T11:40:31;94129.94;;;26.85;43.70
12775;BME280;6451;42.630;23.382;2023-05-23T11:42:59;94120.78;;;26.32;43.52
12775;BME280;6451;42.630;23.382;2023-05-23T11:45:28;94120.38;;;26.96;43.65
12775;BME280;6451;42.630;23.382;2023-05-23T11:47:56;94106.41;;;26.55;43.09
12775;BME280;6451;42.630;23.382;2023-05-23T11:50:24;94106.28;;;26.90;42.23
12775;BME280;6451;42.630;23.382;2023-05-23T11:52:53;94098.28;;;27.41;42.88
12775;BME280;6451;42.630;23.382;2023-05-23T11:55:21;94108.72;;;26.79;43.94
12775;BME280;6451;42.630;23.382;2023-05-23T11:57:48;94123.88;;;26.78;44.64
12775;BME280;6451;42.630;23.382;2023-05-23T12:00:16;94101.88;;;26.71;42.70
12775;BME280;6451;42.630;23.382;2023-05-23T12:02:44;94115.50;;;26.47;43.87
12775;BME280;6451;42.630;23.382;2023-05-23T12:05:13;94107.19;;;26.56;42.17
12775;BME280;6451;42.630;23.382;2023-05-23T12:07:42;94086.38;;;27.01;41.38
12775;BME280;6451;42.630;23.382;2023-05-23T12:10:10;94109.28;;;26.74;43.45
12775;BME280;6451;42.630;23.382;2023-05-23T12:12:40;94105.50;;;26.58;43.25
12775;BME280;6451;42.630;23.382;2023-05-23T12:15:08;94084.91;;;27.18;41.83
12775;BME280;6451;42.630;23.382;2023-05-23T12:17:37;94099.47;;;27.22;40.66
12775;BME280;6451;42.630;23.382;2023-05-23T12:20:06;94083.28;;;27.57;41.08
12775;BME280;6451;42.630;23.382;2023-05-23T12:22:33;94078.56;;;27.94;41.87
12775;BME280;6451;42.630;23.382;2023-05-23T12:25:02;94091.44;;;27.24;42.93
12775;BME280;6451;42.630;23.382;2023-05-23T12:27:33;94085.88;;;27.24;41.47
12775;BME280;6451;42.630;23.382;2023-05-23T12:30:05;94076.53;;;27.09;42.33
12775;BME280;6451;42.630;23.382;2023-05-23T12:32:35;94081.75;;;27.56;43.18
12775;BME280;6451;42.630;23.382;2023-05-23T12:35:04;94072.72;;;27.43;40.73
12775;BME280;6451;42.630;23.382;2023-05-23T12:37:33;94073.59;;;28.08;39.53
12775;BME280;6451;42.630;23.382;2023-05-23T12:40:13;94072.94;;;27.67;40.44
12775;BME280;6451;42.630;23.382;2023-05-23T12:42:46;94066.13;;;28.41;40.95
12775;BME280;6451;42.630;23.382;2023-05-23T12:45:15;94056.47;;;28.61;40.67
12775;BME280;6451;42.630;23.382;2023-05-23T12:47:42;94052.00;;;28.54;39.82
12775;BME280;6451;42.630;23.382;2023-05-23T12:50:09;94063.84;;;29.24;39.77
12775;BME280;6451;42.630;23.382;2023-05-23T12:52:38;94059.50;;;29.23;39.17
12775;BME280;6451;42.630;23.382;2023-05-23T12:55:06;94044.00;;;27.92;37.06
12775;BME280;6451;42.630;23.382;2023-05-23T12:57:34;94036.38;;;27.37;38.15
12775;BME280;6451;42.630;23.382;2023-05-23T13:00:02;94028.44;;;27.36;37.79
12775;BME280;6451;42.630;23.382;2023-05-23T13:02:31;94030.94;;;28.35;38.34
12775;BME280;6451;42.630;23.382;2023-05-23T13:04:59;94047.22;;;28.88;37.62